sensor_id;sensor_type;location;lat;lon;timestamp;pressure;altitude;pressure_sealevel;temperature;humidity
49949;BME280;35840;45.982;8.890;2023-02-19T00:01:37;99227.03;;;6.25;71.31
49949;BME280;35840;45.982;8.890;2023-02-19T00:04:06;99222.75;;;6.26;71.22
49949;BME280;35840;45.982;8.890;2023-02-19T00:06:34;99207.47;;;6.24;70.58
49949;BME280;35840;45.982;8.890;2023-02-19T00:09:02;99208.34;;;6.23;71.05
49949;BME280;35840;45.982;8.890;2023-02-19T00:11:31;99219.66;;;6.14;70.81
49949;BME280;35840;45.982;8.890;2023-02-19T00:14:00;99210.47;;;6.09;71.00
49949;BME280;35840;45.982;8.890;2023-02-19T00:16:33;99215.66;;;6.06;72.13
49949;BME280;35840;45.982;8.890;2023-02-19T00:19:02;99210.66;;;6.02;71.87
49949;BME280;35840;45.982;8.890;2023-02-19T00:21:29;99201.00;;;6.12;70.85
49949;BME280;35840;45.982;8.890;2023-02-19T00:24:01;99208.13;;;6.01;71.35
49949;BME280;35840;45.982;8.890;2023-02-19T00:26:29;99203.28;;;5.90;71.27
49949;BME280;35840;45.982;8.890;2023-02-19T00:28:56;99209.41;;;5.84;71.55
49949;BME280;35840;45.982;8.890;2023-02-19T00:31:28;99205.91;;;5.89;71.40
49949;BME280;35840;45.982;8.890;2023-02-19T00:34:03;99198.94;;;5.94;71.68
49949;BME280;35840;45.982;8.890;2023-02-19T00:36:33;99206.53;;;5.95;70.76
49949;BME280;35840;45.982;8.890;2023-02-19T00:39:04;99204.03;;;5.94;71.00
49949;BME280;35840;45.982;8.890;2023-02-19T00:41:32;99202.44;;;5.91;71.69
49949;BME280;35840;45.982;8.890;2023-02-19T00:44:01;99193.88;;;5.92;71.89
49949;BME280;35840;45.982;8.890;2023-02-19T00:46:37;99202.44;;;5.90;71.37
49949;BME280;35840;45.982;8.890;2023-02-19T00:49:06;99201.75;;;5.84;70.72
49949;BME280;35840;45.982;8.890;2023-02-19T00:51:36;99195.88;;;5.81;71.14
49949;BME280;35840;45.982;8.890;2023-02-19T00:54:04;99184.34;;;5.67;70.97
49949;BME280;35840;45.982;8.890;2023-02-19T00:56:31;99193.69;;;5.68;71.07
49949;BME280;35840;45.982;8.890;2023-02-19T00:58:58;99203.72;;;5.75;71.44
49949;BME280;35840;45.982;8.890;2023-02-19T01:01:25;99197.00;;;5.71;71.12
49949;BME280;35840;45.982;8.890;2023-02-19T01:03:52;99194.69;;;5.61;70.76
49949;BME280;35840;45.982;8.890;2023-02-19T01:06:19;99185.97;;;5.70;71.02
49949;BME280;35840;45.982;8.890;2023-02-19T01:08:46;99192.09;;;5.64;70.90
49949;BME280;35840;45.982;8.890;2023-02-19T01:11:14;99189.63;;;5.60;71.25
49949;BME280;35840;45.982;8.890;2023-02-19T01:13:42;99176.94;;;5.58;71.61
49949;BME280;35840;45.982;8.890;2023-02-19T01:18:40;99179.34;;;5.64;71.89
49949;BME280;35840;45.982;8.890;2023-02-19T01:21:11;99178.94;;;5.47;72.67
49949;BME280;35840;45.982;8.890;2023-02-19T01:23:39;99167.09;;;5.44;72.61
49949;BME280;35840;45.982;8.890;2023-02-19T01:26:07;99180.41;;;5.56;71.70
49949;BME280;35840;45.982;8.890;2023-02-19T01:28:34;99181.28;;;5.55;71.88
49949;BME280;35840;45.982;8.890;2023-02-19T01:31:03;99172.78;;;5.54;71.51
49949;BME280;35840;45.982;8.890;2023-02-19T01:33:30;99177.66;;;5.63;70.97
49949;BME280;35840;45.982;8.890;2023-02-19T01:35:57;99179.38;;;5.63;70.72
49949;BME280;35840;45.982;8.890;2023-02-19T01:38:24;99181.53;;;5.45;71.47
49949;BME280;35840;45.982;8.890;2023-02-19T01:40:55;99176.94;;;5.58;71.89
49949;BME280;35840;45.982;8.890;2023-02-19T01:43:22;99183.81;;;5.56;71.22
49949;BME280;35840;45.982;8.890;2023-02-19T01:45:50;99178.97;;;5.45;71.85
49949;BME280;35840;45.982;8.890;2023-02-19T01:48:30;99183.34;;;5.42;72.03
49949;BME280;35840;45.982;8.890;2023-02-19T01:51:08;99190.97;;;5.42;72.61
49949;BME280;35840;45.982;8.890;2023-02-19T01:53:39;99167.94;;;5.45;71.13
49949;BME280;35840;45.982;8.890;2023-02-19T01:56:08;99166.06;;;5.51;71.21
49949;BME280;35840;45.982;8.890;2023-02-19T01:58:36;99164.47;;;5.47;71.18
49949;BME280;35840;45.982;8.890;2023-02-19T02:01:05;99165.78;;;5.29;71.99
49949;BME280;35840;45.982;8.890;2023-02-19T02:03:34;99155.44;;;5.35;71.68
49949;BME280;35840;45.982;8.890;2023-02-19T02:06:08;99160.47;;;5.37;71.27
49949;BME280;35840;45.982;8.890;2023-02-19T02:08:38;99159.56;;;5.40;71.20
49949;BME280;35840;45.982;8.890;2023-02-19T02:11:24;99158.28;;;5.25;71.25
49949;BME280;35840;45.982;8.890;2023-02-19T02:13:51;99142.56;;;5.07;71.38
49949;BME280;35840;45.982;8.890;2023-02-19T02:26:54;99132.09;;;5.18;71.06
49949;BME280;35840;45.982;8.890;2023-02-19T02:38:27;99129.38;;;5.24;70.94
49949;BME280;35840;45.982;8.890;2023-02-19T02:40:55;99128.75;;;5.16;70.92
49949;BME280;35840;45.982;8.890;2023-02-19T02:43:24;99127.38;;;5.03;70.87
49949;BME280;35840;45.982;8.890;2023-02-19T02:45:51;99119.78;;;5.01;71.19
49949;BME280;35840;45.982;8.890;2023-02-19T02:51:09;99121.34;;;5.07;70.15
49949;BME280;35840;45.982;8.890;2023-02-19T02:53:58;99108.78;;;5.00;71.09
49949;BME280;35840;45.982;8.890;2023-02-19T02:56:47;99107.22;;;4.95;72.13
49949;BME280;35840;45.982;8.890;2023-02-19T02:59:17;99108.94;;;4.93;72.18
49949;BME280;35840;45.982;8.890;2023-02-19T03:01:57;99103.81;;;4.94;71.34
49949;BME280;35840;45.982;8.890;2023-02-19T03:07:37;99094.47;;;4.95;71.20
49949;BME280;35840;45.982;8.890;2023-02-19T03:10:08;99095.50;;;4.86;71.83
49949;BME280;35840;45.982;8.890;2023-02-19T03:12:36;99099.06;;;4.80;71.57
49949;BME280;35840;45.982;8.890;2023-02-19T03:15:26;99092.28;;;4.81;71.61
49949;BME280;35840;45.982;8.890;2023-02-19T03:18:15;99097.38;;;4.81;70.85
49949;BME280;35840;45.982;8.890;2023-02-19T03:21:03;99095.84;;;4.74;71.43
49949;BME280;35840;45.982;8.890;2023-02-19T03:23:32;99090.09;;;4.65;71.50
49949;BME280;35840;45.982;8.890;2023-02-19T03:26:19;99100.94;;;4.74;71.76
49949;BME280;35840;45.982;8.890;2023-02-19T03:28:51;99103.41;;;4.77;71.65
49949;BME280;35840;45.982;8.890;2023-02-19T03:31:41;99092.97;;;4.86;70.40
49949;BME280;35840;45.982;8.890;2023-02-19T03:34:14;99088.19;;;4.74;70.50
49949;BME280;35840;45.982;8.890;2023-02-19T03:36:47;99089.53;;;4.54;71.78
49949;BME280;35840;45.982;8.890;2023-02-19T03:39:19;99096.00;;;4.66;72.44
49949;BME280;35840;45.982;8.890;2023-02-19T03:41:57;99093.78;;;4.54;72.22
49949;BME280;35840;45.982;8.890;2023-02-19T03:47:25;99107.75;;;4.72;72.34
49949;BME280;35840;45.982;8.890;2023-02-19T03:50:57;99112.91;;;4.70;71.33
49949;BME280;35840;45.982;8.890;2023-02-19T03:52:56;99109.78;;;4.59;71.90
49949;BME280;35840;45.982;8.890;2023-02-19T04:00:39;99088.94;;;4.43;72.49
49949;BME280;35840;45.982;8.890;2023-02-19T04:03:23;99099.03;;;4.46;73.39
49949;BME280;35840;45.982;8.890;2023-02-19T04:05:58;99088.78;;;4.49;72.33
49949;BME280;35840;45.982;8.890;2023-02-19T04:08:28;99087.00;;;4.53;71.98
49949;BME280;35840;45.982;8.890;2023-02-19T04:11:02;99093.22;;;4.42;72.83
49949;BME280;35840;45.982;8.890;2023-02-19T04:13:36;99074.38;;;4.50;71.16
49949;BME280;35840;45.982;8.890;2023-02-19T04:16:08;99082.03;;;4.46;72.17
49949;BME280;35840;45.982;8.890;2023-02-19T04:18:38;99096.66;;;4.40;73.19
49949;BME280;35840;45.982;8.890;2023-02-19T04:21:07;99102.50;;;4.43;72.97
49949;BME280;35840;45.982;8.890;2023-02-19T04:23:41;99108.41;;;4.45;72.52
49949;BME280;35840;45.982;8.890;2023-02-19T04:26:10;99098.09;;;4.50;71.84
49949;BME280;35840;45.982;8.890;2023-02-19T04:28:39;99105.59;;;4.56;71.29
49949;BME280;35840;45.982;8.890;2023-02-19T04:31:06;99102.22;;;4.56;71.56
49949;BME280;35840;45.982;8.890;2023-02-19T04:33:32;99117.53;;;4.54;72.04
49949;BME280;35840;45.982;8.890;2023-02-19T04:35:59;99108.78;;;4.64;72.34
49949;BME280;35840;45.982;8.890;2023-02-19T04:38:26;99103.97;;;4.54;71.84
49949;BME280;35840;45.982;8.890;2023-02-19T04:40:53;99101.38;;;4.55;71.34
49949;BME280;35840;45.982;8.890;2023-02-19T04:43:19;99093.88;;;4.49;72.23
49949;BME280;35840;45.982;8.890;2023-02-19T04:45:46;99100.94;;;4.38;73.32
49949;BME280;35840;45.982;8.890;2023-02-19T04:48:13;99094.19;;;4.37;73.70
49949;BME280;35840;45.982;8.890;2023-02-19T04:50:40;99071.28;;;4.37;71.75
49949;BME280;35840;45.982;8.890;2023-02-19T04:53:06;99087.19;;;4.45;71.61
49949;BME280;35840;45.982;8.890;2023-02-19T04:55:37;99095.16;;;4.31;73.12
49949;BME280;35840;45.982;8.890;2023-02-19T04:58:04;99087.81;;;4.19;73.50
49949;BME280;35840;45.982;8.890;2023-02-19T05:00:31;99098.31;;;4.42;73.60
49949;BME280;35840;45.982;8.890;2023-02-19T05:03:00;99093.22;;;4.42;73.47
49949;BME280;35840;45.982;8.890;2023-02-19T05:05:27;99100.13;;;4.36;73.91
49949;BME280;35840;45.982;8.890;2023-02-19T05:07:53;99091.63;;;4.37;73.24
49949;BME280;35840;45.982;8.890;2023-02-19T05:10:20;99090.06;;;4.31;74.52
49949;BME280;35840;45.982;8.890;2023-02-19T05:12:47;99089.69;;;4.48;74.27
49949;BME280;35840;45.982;8.890;2023-02-19T05:15:13;99092.94;;;4.53;72.64
49949;BME280;35840;45.982;8.890;2023-02-19T05:17:40;99091.41;;;4.46;73.05
49949;BME280;35840;45.982;8.890;2023-02-19T05:20:07;99087.34;;;4.39;73.93
49949;BME280;35840;45.982;8.890;2023-02-19T05:22:34;99084.88;;;4.36;74.42
49949;BME280;35840;45.982;8.890;2023-02-19T05:25:01;99092.44;;;4.39;73.43
49949;BME280;35840;45.982;8.890;2023-02-19T05:27:29;99094.84;;;4.43;73.73
49949;BME280;35840;45.982;8.890;2023-02-19T05:29:56;99088.75;;;4.51;72.71
49949;BME280;35840;45.982;8.890;2023-02-19T05:32:22;99088.94;;;4.43;72.50
49949;BME280;35840;45.982;8.890;2023-02-19T05:34:50;99074.72;;;4.34;73.27
49949;BME280;35840;45.982;8.890;2023-02-19T05:37:16;99077.28;;;4.34;74.14
49949;BME280;35840;45.982;8.890;2023-02-19T05:39:43;99078.31;;;4.25;74.23
49949;BME280;35840;45.982;8.890;2023-02-19T05:42:12;99086.66;;;4.30;74.51
49949;BME280;35840;45.982;8.890;2023-02-19T05:44:39;99085.88;;;4.28;74.62
49949;BME280;35840;45.982;8.890;2023-02-19T05:47:05;99089.34;;;4.26;74.47
49949;BME280;35840;45.982;8.890;2023-02-19T05:49:32;99095.91;;;4.35;73.39
49949;BME280;35840;45.982;8.890;2023-02-19T05:51:59;99097.63;;;4.34;73.54
49949;BME280;35840;45.982;8.890;2023-02-19T05:54:29;99105.84;;;4.45;73.59
49949;BME280;35840;45.982;8.890;2023-02-19T05:56:55;99100.97;;;4.36;73.33
49949;BME280;35840;45.982;8.890;2023-02-19T05:59:24;99097.41;;;4.43;72.76
49949;BME280;35840;45.982;8.890;2023-02-19T06:01:52;99090.81;;;4.35;73.47
49949;BME280;35840;45.982;8.890;2023-02-19T06:04:19;99091.06;;;4.24;73.90
49949;BME280;35840;45.982;8.890;2023-02-19T06:06:46;99087.69;;;4.23;73.49
49949;BME280;35840;45.982;8.890;2023-02-19T06:09:13;99107.00;;;4.32;73.89
49949;BME280;35840;45.982;8.890;2023-02-19T06:11:40;99083.38;;;4.27;72.81
49949;BME280;35840;45.982;8.890;2023-02-19T06:14:11;99097.72;;;4.31;73.36
49949;BME280;35840;45.982;8.890;2023-02-19T06:16:38;99092.06;;;4.17;74.18
49949;BME280;35840;45.982;8.890;2023-02-19T06:19:05;99100.38;;;4.25;74.61
49949;BME280;35840;45.982;8.890;2023-02-19T06:21:31;99096.19;;;4.22;74.82
49949;BME280;35840;45.982;8.890;2023-02-19T06:24:03;99092.22;;;4.10;76.14
49949;BME280;35840;45.982;8.890;2023-02-19T06:26:30;99097.22;;;4.13;74.30
49949;BME280;35840;45.982;8.890;2023-02-19T06:28:56;99101.56;;;4.10;74.96
49949;BME280;35840;45.982;8.890;2023-02-19T06:31:23;99097.50;;;4.03;75.76
49949;BME280;35840;45.982;8.890;2023-02-19T06:33:50;99100.69;;;4.11;75.10
49949;BME280;35840;45.982;8.890;2023-02-19T06:36:18;99099.03;;;4.10;76.73
49949;BME280;35840;45.982;8.890;2023-02-19T06:38:45;99086.41;;;4.04;76.24
49949;BME280;35840;45.982;8.890;2023-02-19T06:41:13;99092.00;;;4.21;76.11
49949;BME280;35840;45.982;8.890;2023-02-19T06:43:40;99089.50;;;4.18;77.31
49949;BME280;35840;45.982;8.890;2023-02-19T06:46:09;99085.28;;;4.17;79.05
49949;BME280;35840;45.982;8.890;2023-02-19T06:48:38;99085.22;;;4.20;79.31
49949;BME280;35840;45.982;8.890;2023-02-19T06:51:05;99076.56;;;4.27;78.13
49949;BME280;35840;45.982;8.890;2023-02-19T06:53:32;99083.41;;;4.25;76.25
49949;BME280;35840;45.982;8.890;2023-02-19T06:56:01;99081.72;;;4.24;76.46
49949;BME280;35840;45.982;8.890;2023-02-19T06:58:29;99078.28;;;4.27;76.05
49949;BME280;35840;45.982;8.890;2023-02-19T07:00:56;99073.25;;;4.24;76.73
49949;BME280;35840;45.982;8.890;2023-02-19T07:03:23;99079.91;;;4.29;77.20
49949;BME280;35840;45.982;8.890;2023-02-19T07:05:51;99065.44;;;4.31;77.06
49949;BME280;35840;45.982;8.890;2023-02-19T07:08:18;99069.78;;;4.26;77.09
49949;BME280;35840;45.982;8.890;2023-02-19T07:10:45;99074.28;;;4.15;77.36
49949;BME280;35840;45.982;8.890;2023-02-19T07:13:19;99087.16;;;4.09;78.57
49949;BME280;35840;45.982;8.890;2023-02-19T07:15:45;99084.53;;;4.12;78.46
49949;BME280;35840;45.982;8.890;2023-02-19T07:18:12;99067.56;;;4.12;77.92
49949;BME280;35840;45.982;8.890;2023-02-19T07:20:38;99084.34;;;4.21;77.93
49949;BME280;35840;45.982;8.890;2023-02-19T07:23:05;99096.94;;;4.27;78.06
49949;BME280;35840;45.982;8.890;2023-02-19T07:25:32;99104.56;;;4.27;78.04
49949;BME280;35840;45.982;8.890;2023-02-19T07:27:58;99093.25;;;4.39;78.92
49949;BME280;35840;45.982;8.890;2023-02-19T07:30:25;99099.88;;;4.48;78.29
49949;BME280;35840;45.982;8.890;2023-02-19T07:32:52;99099.72;;;4.54;78.15
49949;BME280;35840;45.982;8.890;2023-02-19T07:35:18;99103.91;;;4.57;78.86
49949;BME280;35840;45.982;8.890;2023-02-19T07:37:45;99104.78;;;4.54;79.78
49949;BME280;35840;45.982;8.890;2023-02-19T07:40:12;99076.22;;;4.43;79.17
49949;BME280;35840;45.982;8.890;2023-02-19T07:42:38;99096.09;;;4.63;79.66
49949;BME280;35840;45.982;8.890;2023-02-19T07:45:05;99095.31;;;4.61;79.84
49949;BME280;35840;45.982;8.890;2023-02-19T07:47:32;99114.75;;;4.63;80.30
49949;BME280;35840;45.982;8.890;2023-02-19T07:49:59;99119.91;;;4.60;80.21
49949;BME280;35840;45.982;8.890;2023-02-19T07:52:25;99117.88;;;4.76;81.04
49949;BME280;35840;45.982;8.890;2023-02-19T07:54:52;99114.47;;;4.76;81.04
49949;BME280;35840;45.982;8.890;2023-02-19T07:57:19;99110.19;;;4.78;81.08
49949;BME280;35840;45.982;8.890;2023-02-19T07:59:46;99110.13;;;4.79;81.40
49949;BME280;35840;45.982;8.890;2023-02-19T08:02:19;99115.19;;;4.81;81.55
49949;BME280;35840;45.982;8.890;2023-02-19T08:05:05;99115.91;;;4.86;81.90
49949;BME280;35840;45.982;8.890;2023-02-19T08:07:33;99109.03;;;4.90;82.37
49949;BME280;35840;45.982;8.890;2023-02-19T08:10:02;99105.56;;;4.92;82.21
49949;BME280;35840;45.982;8.890;2023-02-19T08:12:56;99099.75;;;4.87;82.41
49949;BME280;35840;45.982;8.890;2023-02-19T08:15:41;99107.88;;;5.02;82.58
49949;BME280;35840;45.982;8.890;2023-02-19T08:18:09;99099.59;;;4.93;83.80
49949;BME280;35840;45.982;8.890;2023-02-19T08:20:36;99097.13;;;4.90;83.75
49949;BME280;35840;45.982;8.890;2023-02-19T08:23:03;99093.53;;;4.97;83.60
49949;BME280;35840;45.982;8.890;2023-02-19T08:25:29;99098.50;;;5.04;83.87
49949;BME280;35840;45.982;8.890;2023-02-19T08:27:56;99095.78;;;5.10;83.96
49949;BME280;35840;45.982;8.890;2023-02-19T08:30:23;99095.78;;;5.10;84.01
49949;BME280;35840;45.982;8.890;2023-02-19T08:32:49;99091.53;;;5.09;85.00
49949;BME280;35840;45.982;8.890;2023-02-19T08:35:16;99093.78;;;5.21;84.77
49949;BME280;35840;45.982;8.890;2023-02-19T08:37:43;99088.63;;;5.23;84.67
49949;BME280;35840;45.982;8.890;2023-02-19T08:40:10;99087.00;;;5.20;85.18
49949;BME280;35840;45.982;8.890;2023-02-19T08:42:38;99082.06;;;5.14;85.40
49949;BME280;35840;45.982;8.890;2023-02-19T08:45:05;99079.47;;;5.15;85.22
49949;BME280;35840;45.982;8.890;2023-02-19T08:47:34;99083.56;;;5.21;85.19
49949;BME280;35840;45.982;8.890;2023-02-19T08:50:01;99085.31;;;5.21;85.34
49949;BME280;35840;45.982;8.890;2023-02-19T08:52:27;99076.03;;;5.18;85.63
49949;BME280;35840;45.982;8.890;2023-02-19T08:54:54;99081.91;;;5.20;85.49
49949;BME280;35840;45.982;8.890;2023-02-19T08:57:22;99093.53;;;5.30;85.06
49949;BME280;35840;45.982;8.890;2023-02-19T08:59:49;99091.78;;;5.32;84.78
49949;BME280;35840;45.982;8.890;2023-02-19T09:02:15;99084.84;;;5.38;85.58
49949;BME280;35840;45.982;8.890;2023-02-19T09:04:42;99087.41;;;5.38;86.59
49949;BME280;35840;45.982;8.890;2023-02-19T09:07:11;99084.81;;;5.39;86.22
49949;BME280;35840;45.982;8.890;2023-02-19T09:09:38;99077.09;;;5.41;85.93
49949;BME280;35840;45.982;8.890;2023-02-19T09:12:10;99076.19;;;5.43;85.51
49949;BME280;35840;45.982;8.890;2023-02-19T09:14:38;99079.38;;;5.51;84.85
49949;BME280;35840;45.982;8.890;2023-02-19T09:17:06;99075.81;;;5.57;84.85
49949;BME280;35840;45.982;8.890;2023-02-19T09:19:35;99073.94;;;5.62;84.39
49949;BME280;35840;45.982;8.890;2023-02-19T09:22:03;99071.22;;;5.68;84.77
49949;BME280;35840;45.982;8.890;2023-02-19T09:24:31;99070.22;;;5.74;84.75
49949;BME280;35840;45.982;8.890;2023-02-19T09:26:57;99071.00;;;5.76;84.18
49949;BME280;35840;45.982;8.890;2023-02-19T09:29:25;99081.16;;;5.78;84.29
49949;BME280;35840;45.982;8.890;2023-02-19T09:31:56;99067.63;;;5.76;85.04
49949;BME280;35840;45.982;8.890;2023-02-19T09:34:25;99061.91;;;5.67;84.80
49949;BME280;35840;45.982;8.890;2023-02-19T09:36:52;99077.78;;;5.77;85.22
49949;BME280;35840;45.982;8.890;2023-02-19T09:39:20;99081.09;;;5.79;84.87
49949;BME280;35840;45.982;8.890;2023-02-19T09:41:52;99054.53;;;5.57;84.68
49949;BME280;35840;45.982;8.890;2023-02-19T09:44:28;99079.84;;;5.64;84.28
49949;BME280;35840;45.982;8.890;2023-02-19T09:46:55;99072.16;;;5.66;83.80
49949;BME280;35840;45.982;8.890;2023-02-19T09:49:42;99063.78;;;5.61;83.67
49949;BME280;35840;45.982;8.890;2023-02-19T09:54:56;99064.34;;;5.71;83.49
49949;BME280;35840;45.982;8.890;2023-02-19T09:57:27;99064.31;;;5.72;83.81
49949;BME280;35840;45.982;8.890;2023-02-19T10:00:04;99067.69;;;5.73;83.60
49949;BME280;35840;45.982;8.890;2023-02-19T10:02:31;99061.56;;;5.78;83.29
49949;BME280;35840;45.982;8.890;2023-02-19T10:04:58;99060.50;;;5.87;82.54
49949;BME280;35840;45.982;8.890;2023-02-19T10:07:33;99049.91;;;5.99;85.18
49949;BME280;35840;45.982;8.890;2023-02-19T10:10:19;99049.13;;;5.97;84.63
49949;BME280;35840;45.982;8.890;2023-02-19T10:12:49;99052.28;;;6.06;84.32
49949;BME280;35840;45.982;8.890;2023-02-19T10:15:30;99053.94;;;6.08;83.51
49949;BME280;35840;45.982;8.890;2023-02-19T10:17:57;99060.47;;;6.17;83.27
49949;BME280;35840;45.982;8.890;2023-02-19T10:20:25;99049.28;;;6.21;83.44
49949;BME280;35840;45.982;8.890;2023-02-19T10:23:01;99063.50;;;6.28;83.24
49949;BME280;35840;45.982;8.890;2023-02-19T10:25:29;99048.69;;;6.40;83.63
49949;BME280;35840;45.982;8.890;2023-02-19T10:27:58;99050.53;;;6.61;84.85
49949;BME280;35840;45.982;8.890;2023-02-19T10:30:31;99040.16;;;6.66;83.95
49949;BME280;35840;45.982;8.890;2023-02-19T10:33:07;99047.72;;;6.69;83.02
49949;BME280;35840;45.982;8.890;2023-02-19T10:35:37;99053.41;;;6.77;83.40
49949;BME280;35840;45.982;8.890;2023-02-19T10:38:17;99047.41;;;6.78;82.09
49949;BME280;35840;45.982;8.890;2023-02-19T10:40:45;99044.44;;;6.91;84.16
49949;BME280;35840;45.982;8.890;2023-02-19T10:43:22;99039.94;;;6.97;84.51
49949;BME280;35840;45.982;8.890;2023-02-19T10:45:57;99034.22;;;7.14;82.70
49949;BME280;35840;45.982;8.890;2023-02-19T10:48:34;99037.75;;;7.12;81.45
49949;BME280;35840;45.982;8.890;2023-02-19T10:51:08;99038.69;;;7.09;80.93
49949;BME280;35840;45.982;8.890;2023-02-19T10:58:34;99030.47;;;7.24;81.41
49949;BME280;35840;45.982;8.890;2023-02-19T11:01:19;99028.50;;;7.31;81.78
49949;BME280;35840;45.982;8.890;2023-02-19T11:03:51;99023.56;;;7.50;82.69
49949;BME280;35840;45.982;8.890;2023-02-19T11:06:25;99017.09;;;7.64;81.78
49949;BME280;35840;45.982;8.890;2023-02-19T11:08:59;99006.91;;;7.62;80.42
49949;BME280;35840;45.982;8.890;2023-02-19T11:11:37;99007.38;;;7.50;80.02
49949;BME280;35840;45.982;8.890;2023-02-19T11:14:17;99002.44;;;7.45;79.58
49949;BME280;35840;45.982;8.890;2023-02-19T11:16:50;99005.22;;;7.63;81.13
49949;BME280;35840;45.982;8.890;2023-02-19T11:19:22;99006.47;;;7.74;80.43
49949;BME280;35840;45.982;8.890;2023-02-19T11:21:50;99002.41;;;7.91;80.11
49949;BME280;35840;45.982;8.890;2023-02-19T11:24:36;99003.00;;;7.98;77.99
49949;BME280;35840;45.982;8.890;2023-02-19T11:27:16;98987.22;;;8.08;79.25
49949;BME280;35840;45.982;8.890;2023-02-19T11:29:43;98988.69;;;8.35;80.25
49949;BME280;35840;45.982;8.890;2023-02-19T11:34:46;98983.28;;;8.63;77.85
49949;BME280;35840;45.982;8.890;2023-02-19T11:37:18;98978.56;;;8.54;76.58
49949;BME280;35840;45.982;8.890;2023-02-19T11:39:48;98973.03;;;8.42;76.31
49949;BME280;35840;45.982;8.890;2023-02-19T11:50:26;98964.06;;;8.53;75.75
49949;BME280;35840;45.982;8.890;2023-02-19T11:53:20;98948.97;;;8.47;75.55
49949;BME280;35840;45.982;8.890;2023-02-19T11:59:02;98940.59;;;8.41;75.40
49949;BME280;35840;45.982;8.890;2023-02-19T12:04:07;98922.94;;;8.56;76.04
49949;BME280;35840;45.982;8.890;2023-02-19T12:12:03;98907.81;;;8.89;75.79
49949;BME280;35840;45.982;8.890;2023-02-19T12:26:29;98886.00;;;9.90;73.65
49949;BME280;35840;45.982;8.890;2023-02-19T12:37:14;98867.44;;;10.54;72.42
49949;BME280;35840;45.982;8.890;2023-02-19T12:45:30;98848.03;;;10.48;71.25
49949;BME280;35840;45.982;8.890;2023-02-19T12:48:19;98846.19;;;10.50;71.43
49949;BME280;35840;45.982;8.890;2023-02-19T12:51:29;98842.53;;;10.38;70.53
49949;BME280;35840;45.982;8.890;2023-02-19T12:59:46;98834.13;;;11.16;67.99
49949;BME280;35840;45.982;8.890;2023-02-19T13:02:21;98816.56;;;11.23;68.83
49949;BME280;35840;45.982;8.890;2023-02-19T13:10:54;98817.38;;;11.39;67.65
49949;BME280;35840;45.982;8.890;2023-02-19T13:13:30;98818.78;;;11.45;68.47
49949;BME280;35840;45.982;8.890;2023-02-19T13:16:04;98809.38;;;11.60;67.13
49949;BME280;35840;45.982;8.890;2023-02-19T13:18:38;98808.63;;;11.58;67.83
49949;BME280;35840;45.982;8.890;2023-02-19T13:21:07;98811.66;;;11.64;69.73
49949;BME280;35840;45.982;8.890;2023-02-19T13:23:36;98809.94;;;11.95;67.73
49949;BME280;35840;45.982;8.890;2023-02-19T13:29:38;98794.94;;;12.16;66.17
49949;BME280;35840;45.982;8.890;2023-02-19T13:35:23;98788.41;;;12.11;66.79
49949;BME280;35840;45.982;8.890;2023-02-19T13:37:52;98785.44;;;12.31;66.87
49949;BME280;35840;45.982;8.890;2023-02-19T13:43:05;98784.28;;;12.64;65.03
49949;BME280;35840;45.982;8.890;2023-02-19T13:45:41;98779.38;;;12.74;65.90
49949;BME280;35840;45.982;8.890;2023-02-19T13:48:31;98777.81;;;12.86;63.24
49949;BME280;35840;45.982;8.890;2023-02-19T13:59:26;98763.91;;;13.01;63.82
49949;BME280;35840;45.982;8.890;2023-02-19T14:07:19;98753.31;;;13.19;62.48
49949;BME280;35840;45.982;8.890;2023-02-19T14:09:47;98750.88;;;13.30;63.00
49949;BME280;35840;45.982;8.890;2023-02-19T14:14:45;98745.75;;;13.43;62.38
49949;BME280;35840;45.982;8.890;2023-02-19T14:30:49;98732.75;;;13.57;60.30
49949;BME280;35840;45.982;8.890;2023-02-19T14:33:19;98733.50;;;13.59;59.77
49949;BME280;35840;45.982;8.890;2023-02-19T14:35:50;98732.16;;;13.67;60.57
49949;BME280;35840;45.982;8.890;2023-02-19T14:38:40;98738.75;;;13.71;58.91
49949;BME280;35840;45.982;8.890;2023-02-19T14:41:11;98741.75;;;13.77;58.87
49949;BME280;35840;45.982;8.890;2023-02-19T14:43:39;98738.13;;;13.80;58.54
49949;BME280;35840;45.982;8.890;2023-02-19T14:46:14;98725.00;;;13.83;59.47
49949;BME280;35840;45.982;8.890;2023-02-19T14:48:47;98722.41;;;13.83;59.06
49949;BME280;35840;45.982;8.890;2023-02-19T14:51:41;98724.88;;;13.85;59.75
49949;BME280;35840;45.982;8.890;2023-02-19T14:54:14;98714.44;;;13.86;59.61
49949;BME280;35840;45.982;8.890;2023-02-19T14:56:45;98698.53;;;13.92;59.71
49949;BME280;35840;45.982;8.890;2023-02-19T14:59:20;98705.84;;;13.99;59.89
49949;BME280;35840;45.982;8.890;2023-02-19T15:02:02;98713.13;;;13.93;59.78
49949;BME280;35840;45.982;8.890;2023-02-19T15:04:35;98704.72;;;13.90;59.92
49949;BME280;35840;45.982;8.890;2023-02-19T15:07:06;98706.28;;;13.92;59.63
49949;BME280;35840;45.982;8.890;2023-02-19T15:09:41;98703.81;;;13.78;60.53
49949;BME280;35840;45.982;8.890;2023-02-19T15:12:19;98703.09;;;13.76;58.55
49949;BME280;35840;45.982;8.890;2023-02-19T15:14:47;98716.44;;;13.70;59.64
49949;BME280;35840;45.982;8.890;2023-02-19T15:17:24;98725.22;;;13.67;60.49
49949;BME280;35840;45.982;8.890;2023-02-19T15:19:51;98710.03;;;13.63;60.35
49949;BME280;35840;45.982;8.890;2023-02-19T15:22:22;98709.81;;;13.66;60.08
49949;BME280;35840;45.982;8.890;2023-02-19T15:24:49;98710.53;;;13.68;60.38
49949;BME280;35840;45.982;8.890;2023-02-19T15:27:22;98707.03;;;13.69;60.01
49949;BME280;35840;45.982;8.890;2023-02-19T15:29:51;98710.13;;;13.74;59.82
49949;BME280;35840;45.982;8.890;2023-02-19T15:32:24;98717.16;;;13.59;59.99
49949;BME280;35840;45.982;8.890;2023-02-19T15:34:57;98705.53;;;13.26;61.05
49949;BME280;35840;45.982;8.890;2023-02-19T15:37:27;98712.91;;;13.05;62.62
49949;BME280;35840;45.982;8.890;2023-02-19T15:39:55;98716.81;;;12.98;63.10
49949;BME280;35840;45.982;8.890;2023-02-19T15:42:25;98712.19;;;13.03;62.79
49949;BME280;35840;45.982;8.890;2023-02-19T15:47:38;98703.47;;;13.18;62.56
49949;BME280;35840;45.982;8.890;2023-02-19T15:50:12;98697.66;;;13.27;61.20
49949;BME280;35840;45.982;8.890;2023-02-19T15:57:52;98693.75;;;13.22;58.94
49949;BME280;35840;45.982;8.890;2023-02-19T16:00:55;98694.97;;;13.16;59.22